Terminal Aerodrome Forecast
Issued by NWS

Home | Current Version | Previous Version | Text Only | Print | Product List | Glossary On
Versions: 1 2 3 4 5 6 7 8 9 10 11 12 13 14
000
FTAK31 PAJN 261100
TAFASI
TAF
PASI 261130Z 2612/2712 00000KT P6SM -RA SCT008 OVC045
     FM261700 14004KT P6SM -RA FEW010 BKN020 OVC035
      TEMPO 2617/2621 3SM RA BR BKN008 OVC015
     FM262100 16008KT 6SM -RA BR SCT015 OVC030
     FM270300 14006KT 4SM RA BR BKN008 OVC015
     FM270900 VRB03KT 5SM BR FEW004 OVC015=

USA.gov is the U.S. government's official web portal to all federal, state and local government web resources and services.